sensor_id;sensor_type;location;lat;lon;timestamp;pressure;altitude;pressure_sealevel;temperature
1532;BMP280;759;53.170;8.210;2023-02-02T00:00:32;100527.97;;;6.48
1532;BMP280;759;53.170;8.210;2023-02-02T00:02:57;100521.91;;;6.47
1532;BMP280;759;53.170;8.210;2023-02-02T00:05:22;100530.28;;;6.49
1532;BMP280;759;53.170;8.210;2023-02-02T00:07:47;100515.16;;;6.57
1532;BMP280;759;53.170;8.210;2023-02-02T00:10:12;100525.00;;;6.53
1532;BMP280;759;53.170;8.210;2023-02-02T00:12:38;100516.63;;;6.51
1532;BMP280;759;53.170;8.210;2023-02-02T00:15:03;100545.03;;;6.47
1532;BMP280;759;53.170;8.210;2023-02-02T00:17:28;100531.03;;;6.50
1532;BMP280;759;53.170;8.210;2023-02-02T00:19:53;100521.97;;;6.51
1532;BMP280;759;53.170;8.210;2023-02-02T00:22:18;100523.78;;;6.47
1532;BMP280;759;53.170;8.210;2023-02-02T00:24:44;100519.59;;;6.45
1532;BMP280;759;53.170;8.210;2023-02-02T00:27:09;100522.94;;;6.42
1532;BMP280;759;53.170;8.210;2023-02-02T00:29:34;100522.06;;;6.31
1532;BMP280;759;53.170;8.210;2023-02-02T00:31:59;100520.59;;;6.34
1532;BMP280;759;53.170;8.210;2023-02-02T00:34:24;100520.22;;;6.35
1532;BMP280;759;53.170;8.210;2023-02-02T00:36:50;100526.34;;;6.39
1532;BMP280;759;53.170;8.210;2023-02-02T00:39:16;100530.53;;;6.40
1532;BMP280;759;53.170;8.210;2023-02-02T00:41:42;100534.00;;;6.44
1532;BMP280;759;53.170;8.210;2023-02-02T00:44:07;100541.56;;;6.42
1532;BMP280;759;53.170;8.210;2023-02-02T00:46:51;100548.22;;;6.29
1532;BMP280;759;53.170;8.210;2023-02-02T00:49:16;100552.34;;;6.23
1532;BMP280;759;53.170;8.210;2023-02-02T00:51:42;100557.53;;;6.16
1532;BMP280;759;53.170;8.210;2023-02-02T00:54:07;100555.59;;;6.13
1532;BMP280;759;53.170;8.210;2023-02-02T00:56:32;100554.03;;;6.12
1532;BMP280;759;53.170;8.210;2023-02-02T00:58:57;100552.63;;;6.18
1532;BMP280;759;53.170;8.210;2023-02-02T01:01:23;100558.66;;;6.15
1532;BMP280;759;53.170;8.210;2023-02-02T01:03:48;100555.19;;;6.11
1532;BMP280;759;53.170;8.210;2023-02-02T01:06:14;100561.97;;;6.08
1532;BMP280;759;53.170;8.210;2023-02-02T01:08:40;100562.31;;;6.07
1532;BMP280;759;53.170;8.210;2023-02-02T01:11:05;100557.00;;;6.07
1532;BMP280;759;53.170;8.210;2023-02-02T01:13:31;100558.50;;;6.04
1532;BMP280;759;53.170;8.210;2023-02-02T01:15:56;100560.50;;;6.11
1532;BMP280;759;53.170;8.210;2023-02-02T01:18:22;100560.91;;;6.13
1532;BMP280;759;53.170;8.210;2023-02-02T01:20:55;100554.75;;;6.05
1532;BMP280;759;53.170;8.210;2023-02-02T01:23:20;100560.00;;;6.01
1532;BMP280;759;53.170;8.210;2023-02-02T01:25:51;100558.44;;;6.00
1532;BMP280;759;53.170;8.210;2023-02-02T01:28:16;100556.19;;;6.02
1532;BMP280;759;53.170;8.210;2023-02-02T01:30:41;100560.34;;;6.00
1532;BMP280;759;53.170;8.210;2023-02-02T01:33:07;100557.63;;;5.96
1532;BMP280;759;53.170;8.210;2023-02-02T01:35:32;100562.53;;;5.94
1532;BMP280;759;53.170;8.210;2023-02-02T01:37:57;100567.38;;;5.89
1532;BMP280;759;53.170;8.210;2023-02-02T01:40:25;100569.56;;;5.83
1532;BMP280;759;53.170;8.210;2023-02-02T01:42:50;100565.28;;;5.75
1532;BMP280;759;53.170;8.210;2023-02-02T01:45:20;100587.97;;;5.72
1532;BMP280;759;53.170;8.210;2023-02-02T01:47:55;100569.78;;;5.74
1532;BMP280;759;53.170;8.210;2023-02-02T01:50:24;100569.44;;;5.76
1532;BMP280;759;53.170;8.210;2023-02-02T01:52:51;100569.44;;;5.76
1532;BMP280;759;53.170;8.210;2023-02-02T01:55:18;100566.09;;;5.79
1532;BMP280;759;53.170;8.210;2023-02-02T01:57:55;100577.00;;;5.74
1532;BMP280;759;53.170;8.210;2023-02-02T02:00:21;100575.41;;;5.69
1532;BMP280;759;53.170;8.210;2023-02-02T02:02:49;100569.38;;;5.72
1532;BMP280;759;53.170;8.210;2023-02-02T02:05:17;100576.16;;;5.70
1532;BMP280;759;53.170;8.210;2023-02-02T02:07:44;100574.16;;;5.63
1532;BMP280;759;53.170;8.210;2023-02-02T02:10:11;100576.81;;;5.63
1532;BMP280;759;53.170;8.210;2023-02-02T02:12:36;100580.59;;;5.62
1532;BMP280;759;53.170;8.210;2023-02-02T02:15:02;100579.09;;;5.65
1532;BMP280;759;53.170;8.210;2023-02-02T02:33:48;100593.63;;;5.28
1532;BMP280;759;53.170;8.210;2023-02-02T02:36:23;100595.78;;;5.22
1532;BMP280;759;53.170;8.210;2023-02-02T02:38:53;100594.16;;;5.14
1532;BMP280;759;53.170;8.210;2023-02-02T02:41:26;100593.72;;;5.12
1532;BMP280;759;53.170;8.210;2023-02-02T02:43:54;100587.59;;;5.08
1532;BMP280;759;53.170;8.210;2023-02-02T02:46:20;100592.03;;;5.04
1532;BMP280;759;53.170;8.210;2023-02-02T02:48:46;100596.91;;;5.02
1532;BMP280;759;53.170;8.210;2023-02-02T02:53:55;100595.38;;;5.01
1532;BMP280;759;53.170;8.210;2023-02-02T02:56:23;100597.28;;;5.00
1532;BMP280;759;53.170;8.210;2023-02-02T02:58:57;100590.09;;;5.01
1532;BMP280;759;53.170;8.210;2023-02-02T03:01:27;100593.41;;;4.98
1532;BMP280;759;53.170;8.210;2023-02-02T03:06:26;100594.16;;;4.98
1532;BMP280;759;53.170;8.210;2023-02-02T03:11:18;100599.78;;;4.93
1532;BMP280;759;53.170;8.210;2023-02-02T03:13:43;100600.22;;;4.95
1532;BMP280;759;53.170;8.210;2023-02-02T03:16:09;100596.00;;;4.94
1532;BMP280;759;53.170;8.210;2023-02-02T03:18:34;100608.16;;;4.95
1532;BMP280;759;53.170;8.210;2023-02-02T03:21:00;100605.78;;;4.90
1532;BMP280;759;53.170;8.210;2023-02-02T03:23:25;100604.38;;;4.96
1532;BMP280;759;53.170;8.210;2023-02-02T03:25:51;100611.97;;;4.98
1532;BMP280;759;53.170;8.210;2023-02-02T03:28:16;100609.69;;;4.96
1532;BMP280;759;53.170;8.210;2023-02-02T03:30:42;100605.22;;;5.00
1532;BMP280;759;53.170;8.210;2023-02-02T03:33:07;100608.72;;;5.05
1532;BMP280;759;53.170;8.210;2023-02-02T03:35:33;100603.69;;;4.99
1532;BMP280;759;53.170;8.210;2023-02-02T03:37:58;100602.91;;;4.99
1532;BMP280;759;53.170;8.210;2023-02-02T03:40:23;100620.25;;;4.93
1532;BMP280;759;53.170;8.210;2023-02-02T03:42:49;100614.84;;;4.89
1532;BMP280;759;53.170;8.210;2023-02-02T03:45:14;100620.50;;;4.88
1532;BMP280;759;53.170;8.210;2023-02-02T03:47:39;100619.22;;;4.82
1532;BMP280;759;53.170;8.210;2023-02-02T03:50:05;100622.22;;;4.80
1532;BMP280;759;53.170;8.210;2023-02-02T03:52:30;100631.56;;;4.74
1532;BMP280;759;53.170;8.210;2023-02-02T03:54:56;100631.91;;;4.72
1532;BMP280;759;53.170;8.210;2023-02-02T03:57:21;100635.84;;;4.78
1532;BMP280;759;53.170;8.210;2023-02-02T03:59:46;100638.88;;;4.80
1532;BMP280;759;53.170;8.210;2023-02-02T04:02:11;100641.97;;;4.83
1532;BMP280;759;53.170;8.210;2023-02-02T04:04:36;100645.03;;;4.85
1532;BMP280;759;53.170;8.210;2023-02-02T04:07:02;100651.19;;;4.89
1532;BMP280;759;53.170;8.210;2023-02-02T04:09:27;100656.16;;;4.90
1532;BMP280;759;53.170;8.210;2023-02-02T04:11:52;100656.47;;;4.89
1532;BMP280;759;53.170;8.210;2023-02-02T04:14:17;100658.78;;;4.90
1532;BMP280;759;53.170;8.210;2023-02-02T04:16:43;100656.41;;;4.85
1532;BMP280;759;53.170;8.210;2023-02-02T04:19:08;100660.09;;;4.80
1532;BMP280;759;53.170;8.210;2023-02-02T04:21:33;100667.69;;;4.82
1532;BMP280;759;53.170;8.210;2023-02-02T04:23:58;100662.06;;;4.84
1532;BMP280;759;53.170;8.210;2023-02-02T04:26:24;100665.13;;;4.86
1532;BMP280;759;53.170;8.210;2023-02-02T04:28:50;100660.94;;;4.85
1532;BMP280;759;53.170;8.210;2023-02-02T04:31:15;100669.31;;;4.87
1532;BMP280;759;53.170;8.210;2023-02-02T04:33:41;100670.53;;;4.89
1532;BMP280;759;53.170;8.210;2023-02-02T04:36:06;100665.38;;;4.80
1532;BMP280;759;53.170;8.210;2023-02-02T04:38:31;100668.31;;;4.75
1532;BMP280;759;53.170;8.210;2023-02-02T04:40:56;100661.06;;;4.72
1532;BMP280;759;53.170;8.210;2023-02-02T04:43:22;100666.94;;;4.66
1532;BMP280;759;53.170;8.210;2023-02-02T04:45:47;100659.00;;;4.66
1532;BMP280;759;53.170;8.210;2023-02-02T04:48:13;100661.16;;;4.60
1532;BMP280;759;53.170;8.210;2023-02-02T04:50:39;100664.53;;;4.57
1532;BMP280;759;53.170;8.210;2023-02-02T04:53:04;100666.28;;;4.53
1532;BMP280;759;53.170;8.210;2023-02-02T04:55:29;100656.97;;;4.43
1532;BMP280;759;53.170;8.210;2023-02-02T04:57:54;100655.38;;;4.38
1532;BMP280;759;53.170;8.210;2023-02-02T05:00:19;100662.03;;;4.32
1532;BMP280;759;53.170;8.210;2023-02-02T05:02:45;100660.50;;;4.31
1532;BMP280;759;53.170;8.210;2023-02-02T05:05:11;100661.84;;;4.25
1532;BMP280;759;53.170;8.210;2023-02-02T05:07:36;100656.81;;;4.20
1532;BMP280;759;53.170;8.210;2023-02-02T05:10:04;100655.97;;;4.16
1532;BMP280;759;53.170;8.210;2023-02-02T05:12:29;100659.75;;;4.15
1532;BMP280;759;53.170;8.210;2023-02-02T05:14:54;100659.75;;;4.15
1532;BMP280;759;53.170;8.210;2023-02-02T05:17:19;100660.16;;;4.17
1532;BMP280;759;53.170;8.210;2023-02-02T05:19:45;100667.69;;;4.15
1532;BMP280;759;53.170;8.210;2023-02-02T05:22:10;100656.19;;;4.11
1532;BMP280;759;53.170;8.210;2023-02-02T05:24:35;100664.50;;;4.09
1532;BMP280;759;53.170;8.210;2023-02-02T05:27:00;100664.50;;;4.09
1532;BMP280;759;53.170;8.210;2023-02-02T05:29:26;100661.75;;;4.06
1532;BMP280;759;53.170;8.210;2023-02-02T05:31:52;100658.25;;;4.02
1532;BMP280;759;53.170;8.210;2023-02-02T05:34:17;100654.81;;;4.01
1532;BMP280;759;53.170;8.210;2023-02-02T05:36:42;100649.53;;;4.01
1532;BMP280;759;53.170;8.210;2023-02-02T05:39:08;100651.00;;;3.98
1532;BMP280;759;53.170;8.210;2023-02-02T05:41:33;100652.09;;;3.97
1532;BMP280;759;53.170;8.210;2023-02-02T05:43:58;100641.19;;;3.99
1532;BMP280;759;53.170;8.210;2023-02-02T05:46:24;100642.22;;;3.94
1532;BMP280;759;53.170;8.210;2023-02-02T05:48:49;100645.28;;;3.96
1532;BMP280;759;53.170;8.210;2023-02-02T05:51:15;100644.16;;;3.97
1532;BMP280;759;53.170;8.210;2023-02-02T05:53:42;100645.19;;;3.93
1532;BMP280;759;53.170;8.210;2023-02-02T05:56:09;100645.09;;;3.89
1532;BMP280;759;53.170;8.210;2023-02-02T05:58:34;100639.56;;;3.94
1532;BMP280;759;53.170;8.210;2023-02-02T06:00:59;100628.53;;;3.92
1532;BMP280;759;53.170;8.210;2023-02-02T06:03:24;100636.63;;;3.99
1532;BMP280;759;53.170;8.210;2023-02-02T06:05:49;100630.22;;;4.01
1532;BMP280;759;53.170;8.210;2023-02-02T06:08:15;100635.53;;;4.01
1532;BMP280;759;53.170;8.210;2023-02-02T06:10:40;100627.25;;;4.02
1532;BMP280;759;53.170;8.210;2023-02-02T06:13:06;100636.72;;;4.03
1532;BMP280;759;53.170;8.210;2023-02-02T06:15:31;100629.56;;;4.04
1532;BMP280;759;53.170;8.210;2023-02-02T06:17:57;100625.38;;;4.03
1532;BMP280;759;53.170;8.210;2023-02-02T06:20:22;100630.41;;;4.08
1532;BMP280;759;53.170;8.210;2023-02-02T06:22:48;100627.00;;;4.07
1532;BMP280;759;53.170;8.210;2023-02-02T06:25:13;100629.66;;;4.07
1532;BMP280;759;53.170;8.210;2023-02-02T06:27:39;100623.56;;;4.07
1532;BMP280;759;53.170;8.210;2023-02-02T06:30:05;100621.63;;;4.04
1532;BMP280;759;53.170;8.210;2023-02-02T06:32:30;100621.25;;;4.05
1532;BMP280;759;53.170;8.210;2023-02-02T06:34:56;100621.25;;;4.05
1532;BMP280;759;53.170;8.210;2023-02-02T06:37:21;100620.50;;;4.05
1532;BMP280;759;53.170;8.210;2023-02-02T06:39:46;100628.09;;;4.06
1532;BMP280;759;53.170;8.210;2023-02-02T06:42:11;100620.06;;;4.03
1532;BMP280;759;53.170;8.210;2023-02-02T06:44:36;100622.72;;;4.03
1532;BMP280;759;53.170;8.210;2023-02-02T06:47:01;100622.72;;;4.03
1532;BMP280;759;53.170;8.210;2023-02-02T06:49:27;100621.94;;;4.02
1532;BMP280;759;53.170;8.210;2023-02-02T06:51:52;100621.94;;;4.02
1532;BMP280;759;53.170;8.210;2023-02-02T06:54:17;100619.31;;;4.02
1532;BMP280;759;53.170;8.210;2023-02-02T06:56:42;100625.63;;;3.97
1532;BMP280;759;53.170;8.210;2023-02-02T06:59:09;100620.69;;;3.96
1532;BMP280;759;53.170;8.210;2023-02-02T07:01:35;100616.59;;;3.98
1532;BMP280;759;53.170;8.210;2023-02-02T07:04:02;100621.19;;;4.02
1532;BMP280;759;53.170;8.210;2023-02-02T07:06:28;100618.97;;;4.04
1532;BMP280;759;53.170;8.210;2023-02-02T07:08:55;100615.91;;;4.02
1532;BMP280;759;53.170;8.210;2023-02-02T07:11:21;100614.44;;;4.04
1532;BMP280;759;53.170;8.210;2023-02-02T07:13:48;100606.59;;;4.08
1532;BMP280;759;53.170;8.210;2023-02-02T07:16:14;100617.50;;;4.06
1532;BMP280;759;53.170;8.210;2023-02-02T07:18:39;100614.44;;;4.04
1532;BMP280;759;53.170;8.210;2023-02-02T07:21:09;100618.28;;;4.07
1532;BMP280;759;53.170;8.210;2023-02-02T07:23:39;100620.00;;;4.15
1532;BMP280;759;53.170;8.210;2023-02-02T07:26:05;100624.19;;;4.16
1532;BMP280;759;53.170;8.210;2023-02-02T07:28:32;100632.13;;;4.16
1532;BMP280;759;53.170;8.210;2023-02-02T07:30:58;100633.00;;;4.20
1532;BMP280;759;53.170;8.210;2023-02-02T07:33:24;100642.06;;;4.19
1532;BMP280;759;53.170;8.210;2023-02-02T07:35:49;100650.50;;;4.25
1532;BMP280;759;53.170;8.210;2023-02-02T07:38:14;100643.75;;;4.27
1532;BMP280;759;53.170;8.210;2023-02-02T07:40:39;100656.22;;;4.27
1532;BMP280;759;53.170;8.210;2023-02-02T07:43:04;100663.38;;;4.26
1532;BMP280;759;53.170;8.210;2023-02-02T07:45:30;100663.91;;;4.32
1532;BMP280;759;53.170;8.210;2023-02-02T07:47:55;100670.50;;;4.38
1532;BMP280;759;53.170;8.210;2023-02-02T07:50:21;100684.53;;;4.38
1532;BMP280;759;53.170;8.210;2023-02-02T07:52:46;100690.16;;;4.37
1532;BMP280;759;53.170;8.210;2023-02-02T07:55:11;100694.00;;;4.39
1532;BMP280;759;53.170;8.210;2023-02-02T07:57:36;100695.94;;;4.43
1532;BMP280;759;53.170;8.210;2023-02-02T08:00:02;100701.00;;;4.48
1532;BMP280;759;53.170;8.210;2023-02-02T08:02:27;100699.97;;;4.52
1532;BMP280;759;53.170;8.210;2023-02-02T08:04:52;100708.34;;;4.54
1532;BMP280;759;53.170;8.210;2023-02-02T08:07:17;100702.03;;;4.59
1532;BMP280;759;53.170;8.210;2023-02-02T08:09:45;100709.69;;;4.64
1532;BMP280;759;53.170;8.210;2023-02-02T08:12:11;100724.06;;;4.63
1532;BMP280;759;53.170;8.210;2023-02-02T08:14:37;100725.25;;;4.66
1532;BMP280;759;53.170;8.210;2023-02-02T08:17:02;100726.47;;;4.68
1532;BMP280;759;53.170;8.210;2023-02-02T08:19:27;100731.00;;;4.68
1532;BMP280;759;53.170;8.210;2023-02-02T08:21:52;100738.78;;;4.76
1532;BMP280;759;53.170;8.210;2023-02-02T08:24:17;100744.75;;;4.73
1532;BMP280;759;53.170;8.210;2023-02-02T08:26:43;100756.22;;;4.77
1532;BMP280;759;53.170;8.210;2023-02-02T08:29:11;100777.84;;;4.79
1532;BMP280;759;53.170;8.210;2023-02-02T08:31:41;100772.72;;;4.87
1532;BMP280;759;53.170;8.210;2023-02-02T08:34:06;100789.94;;;4.93
1532;BMP280;759;53.170;8.210;2023-02-02T08:36:32;100799.50;;;4.97
1532;BMP280;759;53.170;8.210;2023-02-02T08:39:03;100808.72;;;5.04
1532;BMP280;759;53.170;8.210;2023-02-02T08:41:29;100824.47;;;5.12
1532;BMP280;759;53.170;8.210;2023-02-02T08:43:54;100820.41;;;5.18
1532;BMP280;759;53.170;8.210;2023-02-02T08:46:19;100835.38;;;5.27
1532;BMP280;759;53.170;8.210;2023-02-02T08:48:45;100836.84;;;5.24
1532;BMP280;759;53.170;8.210;2023-02-02T08:51:12;100846.84;;;5.31
1532;BMP280;759;53.170;8.210;2023-02-02T08:53:39;100850.50;;;5.42
1532;BMP280;759;53.170;8.210;2023-02-02T08:56:05;100856.25;;;5.44
1532;BMP280;759;53.170;8.210;2023-02-02T08:58:32;100864.47;;;5.39
1532;BMP280;759;53.170;8.210;2023-02-02T09:01:12;100868.75;;;5.44
1532;BMP280;759;53.170;8.210;2023-02-02T09:03:37;100871.50;;;5.47
1532;BMP280;759;53.170;8.210;2023-02-02T09:06:08;100876.94;;;5.54
1532;BMP280;759;53.170;8.210;2023-02-02T09:08:34;100874.91;;;5.48
1532;BMP280;759;53.170;8.210;2023-02-02T09:11:03;100879.25;;;5.56
1532;BMP280;759;53.170;8.210;2023-02-02T09:13:28;100885.34;;;5.56
1532;BMP280;759;53.170;8.210;2023-02-02T09:15:57;100884.72;;;5.63
1532;BMP280;759;53.170;8.210;2023-02-02T09:18:22;100891.56;;;5.64
1532;BMP280;759;53.170;8.210;2023-02-02T09:20:47;100898.06;;;5.67
1532;BMP280;759;53.170;8.210;2023-02-02T09:23:13;100864.44;;;5.55
1532;BMP280;759;53.170;8.210;2023-02-02T09:25:38;100894.09;;;5.76
1532;BMP280;759;53.170;8.210;2023-02-02T09:28:03;100902.56;;;5.82
1532;BMP280;759;53.170;8.210;2023-02-02T09:30:29;100914.31;;;5.81
1532;BMP280;759;53.170;8.210;2023-02-02T09:32:54;100917.97;;;5.92
1532;BMP280;759;53.170;8.210;2023-02-02T09:35:19;100921.06;;;5.94
1532;BMP280;759;53.170;8.210;2023-02-02T09:37:44;100929.75;;;5.95
1532;BMP280;759;53.170;8.210;2023-02-02T09:40:13;100928.47;;;6.04
1532;BMP280;759;53.170;8.210;2023-02-02T09:42:43;100934.63;;;6.09
1532;BMP280;759;53.170;8.210;2023-02-02T09:45:17;100937.41;;;6.16
1532;BMP280;759;53.170;8.210;2023-02-02T09:47:55;100944.00;;;6.22
1532;BMP280;759;53.170;8.210;2023-02-02T09:55:47;100954.66;;;6.41
1532;BMP280;759;53.170;8.210;2023-02-02T09:58:24;100963.59;;;6.33
1532;BMP280;759;53.170;8.210;2023-02-02T10:03:20;100962.25;;;6.43
1532;BMP280;759;53.170;8.210;2023-02-02T10:05:50;100964.69;;;6.52
1532;BMP280;759;53.170;8.210;2023-02-02T10:08:17;100967.66;;;6.47
1532;BMP280;759;53.170;8.210;2023-02-02T10:10:46;100959.38;;;6.52
1532;BMP280;759;53.170;8.210;2023-02-02T10:13:17;100962.47;;;6.54
1532;BMP280;759;53.170;8.210;2023-02-02T10:15:51;100973.50;;;6.75
1532;BMP280;759;53.170;8.210;2023-02-02T10:18:26;100978.00;;;6.94
1532;BMP280;759;53.170;8.210;2023-02-02T10:20:55;100985.50;;;7.08
1532;BMP280;759;53.170;8.210;2023-02-02T10:26:12;100985.84;;;7.29
1532;BMP280;759;53.170;8.210;2023-02-02T10:31:23;101012.31;;;7.68
1532;BMP280;759;53.170;8.210;2023-02-02T10:33:58;101020.81;;;7.78
1532;BMP280;759;53.170;8.210;2023-02-02T10:36:42;101025.44;;;7.81
1532;BMP280;759;53.170;8.210;2023-02-02T10:39:19;101030.06;;;7.84
1532;BMP280;759;53.170;8.210;2023-02-02T10:41:55;101027.25;;;7.77
1532;BMP280;759;53.170;8.210;2023-02-02T10:44:28;101031.91;;;7.57
1532;BMP280;759;53.170;8.210;2023-02-02T10:46:56;101036.94;;;7.62
1532;BMP280;759;53.170;8.210;2023-02-02T10:54:33;101037.78;;;7.43
1532;BMP280;759;53.170;8.210;2023-02-02T10:57:02;101046.84;;;7.38
1532;BMP280;759;53.170;8.210;2023-02-02T10:59:29;101033.81;;;7.33
1532;BMP280;759;53.170;8.210;2023-02-02T11:01:55;101035.06;;;7.39
1532;BMP280;759;53.170;8.210;2023-02-02T11:04:21;101025.13;;;7.36
1532;BMP280;759;53.170;8.210;2023-02-02T11:07:05;101023.69;;;7.42
1532;BMP280;759;53.170;8.210;2023-02-02T11:09:31;101041.53;;;7.38
1532;BMP280;759;53.170;8.210;2023-02-02T11:12:12;101027.88;;;7.43
1532;BMP280;759;53.170;8.210;2023-02-02T11:15:41;101036.25;;;7.42
1532;BMP280;759;53.170;8.210;2023-02-02T11:17:35;101034.84;;;7.48
1532;BMP280;759;53.170;8.210;2023-02-02T11:20:00;101033.69;;;7.49
1532;BMP280;759;53.170;8.210;2023-02-02T11:24:52;101042.22;;;7.58
1532;BMP280;759;53.170;8.210;2023-02-02T11:27:30;101043.22;;;7.50
1532;BMP280;759;53.170;8.210;2023-02-02T11:29:57;101048.66;;;7.57
1532;BMP280;759;53.170;8.210;2023-02-02T11:37:33;101054.50;;;7.66
1532;BMP280;759;53.170;8.210;2023-02-02T11:40:16;101064.72;;;7.64
1532;BMP280;759;53.170;8.210;2023-02-02T11:42:45;101064.44;;;7.69
1532;BMP280;759;53.170;8.210;2023-02-02T11:45:14;101056.19;;;7.75
1532;BMP280;759;53.170;8.210;2023-02-02T11:47:41;101062.47;;;7.66
1532;BMP280;759;53.170;8.210;2023-02-02T11:50:14;101056.69;;;7.84
1532;BMP280;759;53.170;8.210;2023-02-02T11:52:44;101057.94;;;7.67
1532;BMP280;759;53.170;8.210;2023-02-02T11:55:13;101056.63;;;7.80
1532;BMP280;759;53.170;8.210;2023-02-02T11:57:39;101055.16;;;7.83
1532;BMP280;759;53.170;8.210;2023-02-02T12:02:36;101064.50;;;8.00
1532;BMP280;759;53.170;8.210;2023-02-02T12:07:32;101073.63;;;7.95
1532;BMP280;759;53.170;8.210;2023-02-02T12:09:58;101072.06;;;7.94
1532;BMP280;759;53.170;8.210;2023-02-02T12:15:02;101065.84;;;8.13
1532;BMP280;759;53.170;8.210;2023-02-02T12:24:58;101078.84;;;8.15
1532;BMP280;759;53.170;8.210;2023-02-02T12:34:56;101082.41;;;8.26
1532;BMP280;759;53.170;8.210;2023-02-02T12:37:31;101083.53;;;8.25
1532;BMP280;759;53.170;8.210;2023-02-02T12:42:45;101077.38;;;8.21
1532;BMP280;759;53.170;8.210;2023-02-02T12:58:16;101088.19;;;8.62
1532;BMP280;759;53.170;8.210;2023-02-02T13:08:11;101077.66;;;8.42
1532;BMP280;759;53.170;8.210;2023-02-02T13:10:40;101071.75;;;8.26
1532;BMP280;759;53.170;8.210;2023-02-02T13:13:16;101073.31;;;8.30
1532;BMP280;759;53.170;8.210;2023-02-02T13:15:46;101067.59;;;8.28
1532;BMP280;759;53.170;8.210;2023-02-02T13:18:17;101066.47;;;8.33
1532;BMP280;759;53.170;8.210;2023-02-02T13:23:12;101076.38;;;8.32
1532;BMP280;759;53.170;8.210;2023-02-02T13:25:40;101074.94;;;8.39
1532;BMP280;759;53.170;8.210;2023-02-02T13:28:09;101076.78;;;8.34
1532;BMP280;759;53.170;8.210;2023-02-02T13:30:39;101082.69;;;8.21
1532;BMP280;759;53.170;8.210;2023-02-02T13:33:12;101079.28;;;8.20
1532;BMP280;759;53.170;8.210;2023-02-02T13:35:50;101087.34;;;8.24
1532;BMP280;759;53.170;8.210;2023-02-02T13:38:18;101081.78;;;8.36
1532;BMP280;759;53.170;8.210;2023-02-02T13:40:45;101084.44;;;8.36
1532;BMP280;759;53.170;8.210;2023-02-02T13:45:46;101086.78;;;8.41
1532;BMP280;759;53.170;8.210;2023-02-02T13:50:46;101094.69;;;8.34
1532;BMP280;759;53.170;8.210;2023-02-02T13:53:18;101095.69;;;8.52
1532;BMP280;759;53.170;8.210;2023-02-02T13:56:04;101094.78;;;8.41
1532;BMP280;759;53.170;8.210;2023-02-02T13:58:36;101100.13;;;8.41
1532;BMP280;759;53.170;8.210;2023-02-02T14:01:06;101080.66;;;8.37
1532;BMP280;759;53.170;8.210;2023-02-02T14:06:03;101089.41;;;8.38
1532;BMP280;759;53.170;8.210;2023-02-02T14:08:29;101087.75;;;8.26
1532;BMP280;759;53.170;8.210;2023-02-02T14:10:56;101095.34;;;8.24
1532;BMP280;759;53.170;8.210;2023-02-02T14:13:25;101094.47;;;8.20
1532;BMP280;759;53.170;8.210;2023-02-02T14:16:21;101090.19;;;8.11
1532;BMP280;759;53.170;8.210;2023-02-02T14:22:01;101087.28;;;8.20
1532;BMP280;759;53.170;8.210;2023-02-02T14:24:36;101093.38;;;8.21
1532;BMP280;759;53.170;8.210;2023-02-02T14:26:57;101092.25;;;8.22
1532;BMP280;759;53.170;8.210;2023-02-02T14:31:53;101096.03;;;8.21
1532;BMP280;759;53.170;8.210;2023-02-02T14:34:40;101089.16;;;8.20
1532;BMP280;759;53.170;8.210;2023-02-02T14:37:15;101090.50;;;8.06
1532;BMP280;759;53.170;8.210;2023-02-02T14:45:21;101098.91;;;8.08
1532;BMP280;759;53.170;8.210;2023-02-02T14:47:48;101096.56;;;8.03
1532;BMP280;759;53.170;8.210;2023-02-02T14:50:14;101104.84;;;7.98
1532;BMP280;759;53.170;8.210;2023-02-02T14:52:41;101099.81;;;7.93
1532;BMP280;759;53.170;8.210;2023-02-02T14:55:17;101105.44;;;7.88
1532;BMP280;759;53.170;8.210;2023-02-02T14:57:42;101086.59;;;7.74
1532;BMP280;759;53.170;8.210;2023-02-02T15:00:21;101092.22;;;7.68
1532;BMP280;759;53.170;8.210;2023-02-02T15:02:47;101090.31;;;7.46
1532;BMP280;759;53.170;8.210;2023-02-02T15:05:41;101083.72;;;7.40
1532;BMP280;759;53.170;8.210;2023-02-02T15:08:21;101097.00;;;7.36
1532;BMP280;759;53.170;8.210;2023-02-02T15:13:17;101087.66;;;7.23
1532;BMP280;759;53.170;8.210;2023-02-02T15:15:43;101090.78;;;7.28
1532;BMP280;759;53.170;8.210;2023-02-02T15:18:17;101089.16;;;7.24
1532;BMP280;759;53.170;8.210;2023-02-02T15:20:46;101098.28;;;7.23
1532;BMP280;759;53.170;8.210;2023-02-02T15:25:59;101105.06;;;7.20
1532;BMP280;759;53.170;8.210;2023-02-02T15:33:49;101117.25;;;7.02
1532;BMP280;759;53.170;8.210;2023-02-02T15:36:22;101120.78;;;7.06
1532;BMP280;759;53.170;8.210;2023-02-02T15:38:49;101118.75;;;6.99
1532;BMP280;759;53.170;8.210;2023-02-02T15:41:24;101114.19;;;7.00
1532;BMP280;759;53.170;8.210;2023-02-02T15:43:50;101127.47;;;7.00
1532;BMP280;759;53.170;8.210;2023-02-02T15:46:18;101125.13;;;6.95
1532;BMP280;759;53.170;8.210;2023-02-02T15:49:12;101128.63;;;6.99
1532;BMP280;759;53.170;8.210;2023-02-02T15:51:33;101122.88;;;6.97
1532;BMP280;759;53.170;8.210;2023-02-02T15:53:58;101125.13;;;6.95
1532;BMP280;759;53.170;8.210;2023-02-02T15:58:53;101123.28;;;6.79
1532;BMP280;759;53.170;8.210;2023-02-02T16:01:19;101126.22;;;6.74
1532;BMP280;759;53.170;8.210;2023-02-02T16:03:53;101124.66;;;6.73
1532;BMP280;759;53.170;8.210;2023-02-02T16:06:21;101124.94;;;6.68
1532;BMP280;759;53.170;8.210;2023-02-02T23:20:03;100708.66;;;8.06
1532;BMP280;759;53.170;8.210;2023-02-02T23:23:12;100717.03;;;8.04
1532;BMP280;759;53.170;8.210;2023-02-02T23:25:37;100712.91;;;8.10
1532;BMP280;759;53.170;8.210;2023-02-02T23:28:03;100709.44;;;8.06
1532;BMP280;759;53.170;8.210;2023-02-02T23:30:28;100714.00;;;8.09
1532;BMP280;759;53.170;8.210;2023-02-02T23:32:53;100712.50;;;8.08
1532;BMP280;759;53.170;8.210;2023-02-02T23:35:18;100702.59;;;8.09
1532;BMP280;759;53.170;8.210;2023-02-02T23:37:44;100716.38;;;8.15
1532;BMP280;759;53.170;8.210;2023-02-02T23:40:09;100712.16;;;8.13
1532;BMP280;759;53.170;8.210;2023-02-02T23:42:35;100724.34;;;8.15
1532;BMP280;759;53.170;8.210;2023-02-02T23:45:01;100611.06;;;7.42
1532;BMP280;759;53.170;8.210;2023-02-02T23:47:36;100725.06;;;8.11
1532;BMP280;759;53.170;8.210;2023-02-02T23:50:03;100728.13;;;8.13
1532;BMP280;759;53.170;8.210;2023-02-02T23:52:29;100747.19;;;8.16
1532;BMP280;759;53.170;8.210;2023-02-02T23:54:55;100752.19;;;8.21
1532;BMP280;759;53.170;8.210;2023-02-02T23:57:20;100745.69;;;8.15
1532;BMP280;759;53.170;8.210;2023-02-02T23:59:45;100747.59;;;8.18
